sensor_id;sensor_type;location;lat;lon;timestamp;temperature;humidity
54124;DHT22;55741;53.252;5.788;2023-03-01T00:01:29;0.30;99.90
54124;DHT22;55741;53.252;5.788;2023-03-01T00:03:57;0.20;99.90
54124;DHT22;55741;53.252;5.788;2023-03-01T00:06:24;0.20;99.90
54124;DHT22;55741;53.252;5.788;2023-03-01T00:08:51;0.20;99.90
54124;DHT22;55741;53.252;5.788;2023-03-01T00:11:19;0.20;99.90
54124;DHT22;55741;53.252;5.788;2023-03-01T00:13:48;0.20;99.90
54124;DHT22;55741;53.252;5.788;2023-03-01T00:16:17;0.20;99.90
54124;DHT22;55741;53.252;5.788;2023-03-01T00:18:43;0.10;99.90
54124;DHT22;55741;53.252;5.788;2023-03-01T00:21:10;0.20;99.90
54124;DHT22;55741;53.252;5.788;2023-03-01T00:23:41;0.10;99.90
54124;DHT22;55741;53.252;5.788;2023-03-01T00:26:10;0.10;99.90
54124;DHT22;55741;53.252;5.788;2023-03-01T00:28:36;0.10;99.90
54124;DHT22;55741;53.252;5.788;2023-03-01T00:31:08;0.00;99.90
54124;DHT22;55741;53.252;5.788;2023-03-01T00:33:34;0.00;99.90
54124;DHT22;55741;53.252;5.788;2023-03-01T00:36:01;-0.10;99.90
54124;DHT22;55741;53.252;5.788;2023-03-01T00:38:27;0.00;99.90
54124;DHT22;55741;53.252;5.788;2023-03-01T00:40:54;-0.10;99.90
54124;DHT22;55741;53.252;5.788;2023-03-01T00:43:20;-0.10;99.90
54124;DHT22;55741;53.252;5.788;2023-03-01T00:45:46;0.00;99.90
54124;DHT22;55741;53.252;5.788;2023-03-01T00:48:13;0.00;99.90
54124;DHT22;55741;53.252;5.788;2023-03-01T00:50:44;0.00;99.90
54124;DHT22;55741;53.252;5.788;2023-03-01T00:53:10;0.00;99.90
54124;DHT22;55741;53.252;5.788;2023-03-01T00:55:36;0.00;99.90
54124;DHT22;55741;53.252;5.788;2023-03-01T00:58:02;0.10;99.90
54124;DHT22;55741;53.252;5.788;2023-03-01T01:00:27;0.00;99.90
54124;DHT22;55741;53.252;5.788;2023-03-01T01:02:53;0.00;99.90
54124;DHT22;55741;53.252;5.788;2023-03-01T01:05:19;0.00;99.90
54124;DHT22;55741;53.252;5.788;2023-03-01T01:07:47;0.00;99.90
54124;DHT22;55741;53.252;5.788;2023-03-01T01:10:14;-0.10;99.90
54124;DHT22;55741;53.252;5.788;2023-03-01T01:12:44;-0.10;99.90
54124;DHT22;55741;53.252;5.788;2023-03-01T01:15:10;-0.10;99.90
54124;DHT22;55741;53.252;5.788;2023-03-01T01:17:39;0.20;99.90
54124;DHT22;55741;53.252;5.788;2023-03-01T01:20:06;0.00;99.90
54124;DHT22;55741;53.252;5.788;2023-03-01T01:22:32;-0.10;99.90
54124;DHT22;55741;53.252;5.788;2023-03-01T01:25:00;-0.10;99.90
54124;DHT22;55741;53.252;5.788;2023-03-01T01:27:29;-0.10;99.90
54124;DHT22;55741;53.252;5.788;2023-03-01T01:29:55;-0.20;99.90
54124;DHT22;55741;53.252;5.788;2023-03-01T01:32:21;-0.20;99.90
54124;DHT22;55741;53.252;5.788;2023-03-01T01:34:47;-0.20;99.90
54124;DHT22;55741;53.252;5.788;2023-03-01T01:37:13;-0.20;99.90
54124;DHT22;55741;53.252;5.788;2023-03-01T01:39:39;0.10;99.90
54124;DHT22;55741;53.252;5.788;2023-03-01T01:42:05;-0.30;99.90
54124;DHT22;55741;53.252;5.788;2023-03-01T01:44:33;-0.30;99.90
54124;DHT22;55741;53.252;5.788;2023-03-01T01:47:11;-0.30;99.90
54124;DHT22;55741;53.252;5.788;2023-03-01T01:49:49;-0.30;99.90
54124;DHT22;55741;53.252;5.788;2023-03-01T01:52:29;-0.40;99.90
54124;DHT22;55741;53.252;5.788;2023-03-01T01:55:14;-0.40;99.90
54124;DHT22;55741;53.252;5.788;2023-03-01T01:57:53;-0.50;99.90
54124;DHT22;55741;53.252;5.788;2023-03-01T02:00:26;-0.60;99.90
54124;DHT22;55741;53.252;5.788;2023-03-01T02:02:59;-0.60;99.90
54124;DHT22;55741;53.252;5.788;2023-03-01T02:08:29;-0.70;99.90
54124;DHT22;55741;53.252;5.788;2023-03-01T02:10:59;-0.80;99.90
54124;DHT22;55741;53.252;5.788;2023-03-01T02:13:26;-0.80;99.90
54124;DHT22;55741;53.252;5.788;2023-03-01T02:15:52;-0.90;99.90
54124;DHT22;55741;53.252;5.788;2023-03-01T02:18:21;-0.90;99.90
54124;DHT22;55741;53.252;5.788;2023-03-01T02:23:41;-1.00;99.90
54124;DHT22;55741;53.252;5.788;2023-03-01T02:26:23;-1.10;99.90
54124;DHT22;55741;53.252;5.788;2023-03-01T02:28:54;-1.10;99.90
54124;DHT22;55741;53.252;5.788;2023-03-01T02:31:21;-1.20;99.90
54124;DHT22;55741;53.252;5.788;2023-03-01T02:34:14;-1.30;99.90
54124;DHT22;55741;53.252;5.788;2023-03-01T02:36:56;-1.40;99.90
54124;DHT22;55741;53.252;5.788;2023-03-01T02:39:48;-1.50;99.90
54124;DHT22;55741;53.252;5.788;2023-03-01T02:42:21;-1.60;99.90
54124;DHT22;55741;53.252;5.788;2023-03-01T02:44:49;-1.80;99.90
54124;DHT22;55741;53.252;5.788;2023-03-01T02:47:15;-1.90;99.90
54124;DHT22;55741;53.252;5.788;2023-03-01T02:49:41;-1.90;99.90
54124;DHT22;55741;53.252;5.788;2023-03-01T02:55:14;-1.90;99.90
54124;DHT22;55741;53.252;5.788;2023-03-01T02:57:44;-1.90;99.90
54124;DHT22;55741;53.252;5.788;2023-03-01T03:00:15;-1.90;99.90
54124;DHT22;55741;53.252;5.788;2023-03-01T03:02:46;-1.90;99.90
54124;DHT22;55741;53.252;5.788;2023-03-01T03:05:16;-1.90;99.90
54124;DHT22;55741;53.252;5.788;2023-03-01T03:07:48;-1.90;99.90
54124;DHT22;55741;53.252;5.788;2023-03-01T03:10:33;-1.90;99.90
54124;DHT22;55741;53.252;5.788;2023-03-01T03:13:11;-1.80;99.90
54124;DHT22;55741;53.252;5.788;2023-03-01T03:15:39;-1.80;99.90
54124;DHT22;55741;53.252;5.788;2023-03-01T03:18:08;-1.80;99.90
54124;DHT22;55741;53.252;5.788;2023-03-01T03:20:36;-1.70;99.90
54124;DHT22;55741;53.252;5.788;2023-03-01T03:23:02;-1.80;99.90
54124;DHT22;55741;53.252;5.788;2023-03-01T03:25:29;-1.70;99.90
54124;DHT22;55741;53.252;5.788;2023-03-01T03:27:57;-1.70;99.90
54124;DHT22;55741;53.252;5.788;2023-03-01T03:30:26;-1.60;99.90
54124;DHT22;55741;53.252;5.788;2023-03-01T03:32:53;-1.60;99.90
54124;DHT22;55741;53.252;5.788;2023-03-01T03:35:26;-1.50;99.90
54124;DHT22;55741;53.252;5.788;2023-03-01T03:37:52;-1.50;99.90
54124;DHT22;55741;53.252;5.788;2023-03-01T03:40:40;-1.50;99.90
54124;DHT22;55741;53.252;5.788;2023-03-01T03:43:08;-1.40;99.90
54124;DHT22;55741;53.252;5.788;2023-03-01T03:45:35;-1.10;99.90
54124;DHT22;55741;53.252;5.788;2023-03-01T03:48:02;-1.30;99.90
54124;DHT22;55741;53.252;5.788;2023-03-01T03:50:29;-1.30;99.90
54124;DHT22;55741;53.252;5.788;2023-03-01T03:52:55;-1.30;99.90
54124;DHT22;55741;53.252;5.788;2023-03-01T03:55:21;-1.20;99.90
54124;DHT22;55741;53.252;5.788;2023-03-01T03:57:49;-1.20;99.90
54124;DHT22;55741;53.252;5.788;2023-03-01T04:00:19;-1.20;99.90
54124;DHT22;55741;53.252;5.788;2023-03-01T04:02:46;-1.30;99.90
54124;DHT22;55741;53.252;5.788;2023-03-01T04:05:15;-1.30;99.90
54124;DHT22;55741;53.252;5.788;2023-03-01T04:07:42;-1.20;99.90
54124;DHT22;55741;53.252;5.788;2023-03-01T04:10:16;-1.20;99.90
54124;DHT22;55741;53.252;5.788;2023-03-01T04:12:43;-1.20;99.90
54124;DHT22;55741;53.252;5.788;2023-03-01T04:15:11;-1.20;99.90
54124;DHT22;55741;53.252;5.788;2023-03-01T04:17:44;-1.20;99.90
54124;DHT22;55741;53.252;5.788;2023-03-01T04:20:12;-1.20;99.90
54124;DHT22;55741;53.252;5.788;2023-03-01T04:22:39;-1.20;99.90
54124;DHT22;55741;53.252;5.788;2023-03-01T04:25:06;-1.30;99.90
54124;DHT22;55741;53.252;5.788;2023-03-01T04:27:34;-1.20;99.90
54124;DHT22;55741;53.252;5.788;2023-03-01T04:30:03;-1.30;99.90
54124;DHT22;55741;53.252;5.788;2023-03-01T04:32:29;-1.30;99.90
54124;DHT22;55741;53.252;5.788;2023-03-01T04:34:55;-1.30;99.90
54124;DHT22;55741;53.252;5.788;2023-03-01T04:37:21;-1.40;99.90
54124;DHT22;55741;53.252;5.788;2023-03-01T04:39:47;-1.30;99.90
54124;DHT22;55741;53.252;5.788;2023-03-01T04:42:16;-1.30;99.90
54124;DHT22;55741;53.252;5.788;2023-03-01T04:44:43;-1.40;99.90
54124;DHT22;55741;53.252;5.788;2023-03-01T04:47:09;-1.40;99.90
54124;DHT22;55741;53.252;5.788;2023-03-01T04:49:35;-1.40;99.90
54124;DHT22;55741;53.252;5.788;2023-03-01T04:52:01;-1.40;99.90
54124;DHT22;55741;53.252;5.788;2023-03-01T04:54:34;-1.40;99.90
54124;DHT22;55741;53.252;5.788;2023-03-01T04:57:01;-1.40;99.90
54124;DHT22;55741;53.252;5.788;2023-03-01T04:59:28;-1.40;99.90
54124;DHT22;55741;53.252;5.788;2023-03-01T05:01:55;-1.40;99.90
54124;DHT22;55741;53.252;5.788;2023-03-01T05:04:25;-1.40;99.90
54124;DHT22;55741;53.252;5.788;2023-03-01T05:06:50;-1.40;99.90
54124;DHT22;55741;53.252;5.788;2023-03-01T05:09:16;-1.40;99.90
54124;DHT22;55741;53.252;5.788;2023-03-01T05:11:42;-1.40;99.90
54124;DHT22;55741;53.252;5.788;2023-03-01T05:14:09;-1.40;99.90
54124;DHT22;55741;53.252;5.788;2023-03-01T05:16:35;-1.40;99.90
54124;DHT22;55741;53.252;5.788;2023-03-01T05:19:03;-1.50;99.90
54124;DHT22;55741;53.252;5.788;2023-03-01T05:21:42;-1.50;99.90
54124;DHT22;55741;53.252;5.788;2023-03-01T05:24:27;-1.60;99.90
54124;DHT22;55741;53.252;5.788;2023-03-01T05:26:54;-1.50;99.90
54124;DHT22;55741;53.252;5.788;2023-03-01T05:29:21;-1.50;99.90
54124;DHT22;55741;53.252;5.788;2023-03-01T05:31:54;-1.50;99.90
54124;DHT22;55741;53.252;5.788;2023-03-01T05:34:26;-1.00;99.90
54124;DHT22;55741;53.252;5.788;2023-03-01T05:36:53;-1.50;99.90
54124;DHT22;55741;53.252;5.788;2023-03-01T05:39:21;-1.50;99.90
54124;DHT22;55741;53.252;5.788;2023-03-01T05:41:51;-1.50;99.90
54124;DHT22;55741;53.252;5.788;2023-03-01T05:44:17;-1.50;99.90
54124;DHT22;55741;53.252;5.788;2023-03-01T05:46:43;-1.50;99.90
54124;DHT22;55741;53.252;5.788;2023-03-01T05:49:11;-1.40;99.90
54124;DHT22;55741;53.252;5.788;2023-03-01T05:51:39;-1.40;99.90
54124;DHT22;55741;53.252;5.788;2023-03-01T05:54:05;-1.40;99.90
54124;DHT22;55741;53.252;5.788;2023-03-01T05:56:35;-1.40;99.90
54124;DHT22;55741;53.252;5.788;2023-03-01T05:59:02;-1.40;99.90
54124;DHT22;55741;53.252;5.788;2023-03-01T06:01:28;-1.40;99.90
54124;DHT22;55741;53.252;5.788;2023-03-01T06:04:06;-1.50;99.90
54124;DHT22;55741;53.252;5.788;2023-03-01T06:06:36;-1.40;99.90
54124;DHT22;55741;53.252;5.788;2023-03-01T06:09:06;-1.40;99.90
54124;DHT22;55741;53.252;5.788;2023-03-01T06:11:36;-1.40;99.90
54124;DHT22;55741;53.252;5.788;2023-03-01T06:14:02;-1.40;99.90
54124;DHT22;55741;53.252;5.788;2023-03-01T06:16:28;-1.40;99.90
54124;DHT22;55741;53.252;5.788;2023-03-01T06:18:54;-1.50;99.90
54124;DHT22;55741;53.252;5.788;2023-03-01T06:21:20;-1.40;99.90
54124;DHT22;55741;53.252;5.788;2023-03-01T06:23:46;-1.50;99.90
54124;DHT22;55741;53.252;5.788;2023-03-01T06:26:12;-1.40;99.90
54124;DHT22;55741;53.252;5.788;2023-03-01T06:28:38;-1.40;99.90
54124;DHT22;55741;53.252;5.788;2023-03-01T06:31:08;-1.40;99.90
54124;DHT22;55741;53.252;5.788;2023-03-01T06:33:36;-1.40;99.90
54124;DHT22;55741;53.252;5.788;2023-03-01T06:36:03;-1.40;99.90
54124;DHT22;55741;53.252;5.788;2023-03-01T06:38:29;-1.40;99.90
54124;DHT22;55741;53.252;5.788;2023-03-01T06:40:56;-1.50;99.90
54124;DHT22;55741;53.252;5.788;2023-03-01T06:43:24;-1.50;99.90
54124;DHT22;55741;53.252;5.788;2023-03-01T06:45:50;-1.60;99.90
54124;DHT22;55741;53.252;5.788;2023-03-01T06:48:16;-1.50;99.90
54124;DHT22;55741;53.252;5.788;2023-03-01T06:50:42;-1.70;99.90
54124;DHT22;55741;53.252;5.788;2023-03-01T06:53:08;-1.80;99.90
54124;DHT22;55741;53.252;5.788;2023-03-01T06:55:34;-1.80;99.90
54124;DHT22;55741;53.252;5.788;2023-03-01T06:58:01;-1.80;99.90
54124;DHT22;55741;53.252;5.788;2023-03-01T07:00:28;-1.90;99.90
54124;DHT22;55741;53.252;5.788;2023-03-01T07:03:14;-1.90;99.90
54124;DHT22;55741;53.252;5.788;2023-03-01T07:05:40;-1.90;99.90
54124;DHT22;55741;53.252;5.788;2023-03-01T07:08:06;-1.90;99.90
54124;DHT22;55741;53.252;5.788;2023-03-01T07:10:32;-2.00;99.90
54124;DHT22;55741;53.252;5.788;2023-03-01T07:12:58;-2.00;99.90
54124;DHT22;55741;53.252;5.788;2023-03-01T07:15:25;-1.80;99.90
54124;DHT22;55741;53.252;5.788;2023-03-01T07:17:52;-2.10;99.90
54124;DHT22;55741;53.252;5.788;2023-03-01T07:20:19;-2.10;99.90
54124;DHT22;55741;53.252;5.788;2023-03-01T07:22:48;-2.10;99.90
54124;DHT22;55741;53.252;5.788;2023-03-01T07:25:14;-2.00;99.90
54124;DHT22;55741;53.252;5.788;2023-03-01T07:27:39;-2.10;99.90
54124;DHT22;55741;53.252;5.788;2023-03-01T07:30:06;-2.10;99.90
54124;DHT22;55741;53.252;5.788;2023-03-01T07:32:32;-2.10;99.90
54124;DHT22;55741;53.252;5.788;2023-03-01T07:35:00;-2.10;99.90
54124;DHT22;55741;53.252;5.788;2023-03-01T07:37:26;-2.00;99.90
54124;DHT22;55741;53.252;5.788;2023-03-01T07:39:52;-1.90;99.90
54124;DHT22;55741;53.252;5.788;2023-03-01T07:42:18;-1.80;99.90
54124;DHT22;55741;53.252;5.788;2023-03-01T07:44:44;-1.80;99.90
54124;DHT22;55741;53.252;5.788;2023-03-01T07:47:10;-1.70;99.90
54124;DHT22;55741;53.252;5.788;2023-03-01T07:49:36;-1.60;99.90
54124;DHT22;55741;53.252;5.788;2023-03-01T07:52:02;-1.50;99.90
54124;DHT22;55741;53.252;5.788;2023-03-01T07:54:28;-1.40;99.90
54124;DHT22;55741;53.252;5.788;2023-03-01T07:56:54;-1.30;99.90
54124;DHT22;55741;53.252;5.788;2023-03-01T07:59:20;-1.30;99.90
54124;DHT22;55741;53.252;5.788;2023-03-01T08:01:46;-1.20;99.90
54124;DHT22;55741;53.252;5.788;2023-03-01T08:04:17;-1.20;99.90
54124;DHT22;55741;53.252;5.788;2023-03-01T08:06:43;-1.10;99.90
54124;DHT22;55741;53.252;5.788;2023-03-01T08:09:08;-1.00;99.90
54124;DHT22;55741;53.252;5.788;2023-03-01T08:11:37;-1.10;99.90
54124;DHT22;55741;53.252;5.788;2023-03-01T08:14:03;-1.00;99.90
54124;DHT22;55741;53.252;5.788;2023-03-01T08:16:34;-1.00;99.90
54124;DHT22;55741;53.252;5.788;2023-03-01T08:19:09;-0.90;99.90
54124;DHT22;55741;53.252;5.788;2023-03-01T08:21:35;-0.80;99.90
54124;DHT22;55741;53.252;5.788;2023-03-01T08:24:03;-0.70;99.90
54124;DHT22;55741;53.252;5.788;2023-03-01T08:26:35;-0.50;99.90
54124;DHT22;55741;53.252;5.788;2023-03-01T08:29:02;-0.40;99.90
54124;DHT22;55741;53.252;5.788;2023-03-01T08:31:36;-0.20;99.90
54124;DHT22;55741;53.252;5.788;2023-03-01T08:34:05;0.00;99.90
54124;DHT22;55741;53.252;5.788;2023-03-01T08:36:36;0.10;99.90
54124;DHT22;55741;53.252;5.788;2023-03-01T08:39:04;0.40;99.90
54124;DHT22;55741;53.252;5.788;2023-03-01T08:41:30;0.50;99.90
54124;DHT22;55741;53.252;5.788;2023-03-01T08:43:56;0.70;99.90
54124;DHT22;55741;53.252;5.788;2023-03-01T08:46:29;0.80;99.90
54124;DHT22;55741;53.252;5.788;2023-03-01T08:48:55;0.90;99.90
54124;DHT22;55741;53.252;5.788;2023-03-01T08:51:23;1.10;99.90
54124;DHT22;55741;53.252;5.788;2023-03-01T08:53:49;1.30;99.90
54124;DHT22;55741;53.252;5.788;2023-03-01T08:56:16;1.40;99.90
54124;DHT22;55741;53.252;5.788;2023-03-01T08:58:46;1.50;99.90
54124;DHT22;55741;53.252;5.788;2023-03-01T09:01:16;1.70;99.90
54124;DHT22;55741;53.252;5.788;2023-03-01T09:03:46;1.90;99.90
54124;DHT22;55741;53.252;5.788;2023-03-01T09:06:12;2.00;99.90
54124;DHT22;55741;53.252;5.788;2023-03-01T09:08:42;2.10;99.90
54124;DHT22;55741;53.252;5.788;2023-03-01T09:11:10;2.20;99.90
54124;DHT22;55741;53.252;5.788;2023-03-01T09:13:37;2.40;99.90
54124;DHT22;55741;53.252;5.788;2023-03-01T09:16:05;2.40;99.90
54124;DHT22;55741;53.252;5.788;2023-03-01T09:18:31;2.50;99.90
54124;DHT22;55741;53.252;5.788;2023-03-01T09:21:04;2.60;99.90
54124;DHT22;55741;53.252;5.788;2023-03-01T09:23:38;2.70;99.90
54124;DHT22;55741;53.252;5.788;2023-03-01T09:26:13;2.80;99.90
54124;DHT22;55741;53.252;5.788;2023-03-01T09:28:42;2.90;99.90
54124;DHT22;55741;53.252;5.788;2023-03-01T09:31:10;3.00;99.90
54124;DHT22;55741;53.252;5.788;2023-03-01T09:33:39;3.10;99.90
54124;DHT22;55741;53.252;5.788;2023-03-01T09:36:09;3.20;99.90
54124;DHT22;55741;53.252;5.788;2023-03-01T09:38:38;3.30;99.90
54124;DHT22;55741;53.252;5.788;2023-03-01T09:41:11;3.40;99.90
54124;DHT22;55741;53.252;5.788;2023-03-01T09:43:50;3.50;99.90
54124;DHT22;55741;53.252;5.788;2023-03-01T09:46:22;3.60;99.90
54124;DHT22;55741;53.252;5.788;2023-03-01T09:48:52;3.70;99.90
54124;DHT22;55741;53.252;5.788;2023-03-01T09:51:29;3.80;99.90
54124;DHT22;55741;53.252;5.788;2023-03-01T09:53:56;3.90;99.90
54124;DHT22;55741;53.252;5.788;2023-03-01T09:56:41;4.00;99.90
54124;DHT22;55741;53.252;5.788;2023-03-01T10:01:50;4.20;99.90
54124;DHT22;55741;53.252;5.788;2023-03-01T10:04:47;4.30;99.90
54124;DHT22;55741;53.252;5.788;2023-03-01T10:07:37;4.40;99.90
54124;DHT22;55741;53.252;5.788;2023-03-01T10:10:08;4.50;99.90
54124;DHT22;55741;53.252;5.788;2023-03-01T10:12:41;4.70;99.90
54124;DHT22;55741;53.252;5.788;2023-03-01T10:15:18;4.80;99.90
54124;DHT22;55741;53.252;5.788;2023-03-01T10:17:57;5.00;99.90
54124;DHT22;55741;53.252;5.788;2023-03-01T10:20:33;5.20;99.90
54124;DHT22;55741;53.252;5.788;2023-03-01T10:23:02;5.40;99.90
54124;DHT22;55741;53.252;5.788;2023-03-01T10:28:05;5.70;99.90
54124;DHT22;55741;53.252;5.788;2023-03-01T10:30:38;5.90;99.90
54124;DHT22;55741;53.252;5.788;2023-03-01T10:33:22;6.10;99.90
54124;DHT22;55741;53.252;5.788;2023-03-01T10:35:49;6.20;99.90
54124;DHT22;55741;53.252;5.788;2023-03-01T10:38:16;6.40;99.90
54124;DHT22;55741;53.252;5.788;2023-03-01T10:43:47;6.60;99.90
54124;DHT22;55741;53.252;5.788;2023-03-01T10:49:23;6.90;99.90
54124;DHT22;55741;53.252;5.788;2023-03-01T10:51:52;7.10;99.90
54124;DHT22;55741;53.252;5.788;2023-03-01T10:54:32;7.20;99.90
54124;DHT22;55741;53.252;5.788;2023-03-01T10:59:26;7.50;99.90
54124;DHT22;55741;53.252;5.788;2023-03-01T11:02:16;7.50;99.90
54124;DHT22;55741;53.252;5.788;2023-03-01T11:05:20;7.70;99.90
54124;DHT22;55741;53.252;5.788;2023-03-01T11:07:55;7.90;99.90
54124;DHT22;55741;53.252;5.788;2023-03-01T11:10:28;8.10;99.90
54124;DHT22;55741;53.252;5.788;2023-03-01T11:13:13;8.20;99.90
54124;DHT22;55741;53.252;5.788;2023-03-01T11:16:10;8.40;99.90
54124;DHT22;55741;53.252;5.788;2023-03-01T11:18:37;8.50;99.90
54124;DHT22;55741;53.252;5.788;2023-03-01T11:21:03;8.70;99.90
54124;DHT22;55741;53.252;5.788;2023-03-01T11:23:31;8.90;99.90
54124;DHT22;55741;53.252;5.788;2023-03-01T11:26:07;9.00;99.90
54124;DHT22;55741;53.252;5.788;2023-03-01T11:28:38;9.20;99.90
54124;DHT22;55741;53.252;5.788;2023-03-01T11:31:06;9.30;99.90
54124;DHT22;55741;53.252;5.788;2023-03-01T11:36:35;9.50;99.90
54124;DHT22;55741;53.252;5.788;2023-03-01T11:39:18;9.50;99.90
54124;DHT22;55741;53.252;5.788;2023-03-01T11:42:00;9.70;99.90
54124;DHT22;55741;53.252;5.788;2023-03-01T11:44:30;9.80;99.90
54124;DHT22;55741;53.252;5.788;2023-03-01T12:06:32;10.50;99.90
54124;DHT22;55741;53.252;5.788;2023-03-01T12:09:37;10.60;99.90
54124;DHT22;55741;53.252;5.788;2023-03-01T12:12:28;10.60;99.90
54124;DHT22;55741;53.252;5.788;2023-03-01T12:15:23;10.70;99.90
54124;DHT22;55741;53.252;5.788;2023-03-01T12:26:13;10.90;99.90
54124;DHT22;55741;53.252;5.788;2023-03-01T12:31:44;10.90;99.90
54124;DHT22;55741;53.252;5.788;2023-03-01T12:48:19;10.90;99.90
54124;DHT22;55741;53.252;5.788;2023-03-01T12:50:52;10.80;99.90
54124;DHT22;55741;53.252;5.788;2023-03-01T12:53:31;10.80;99.90
54124;DHT22;55741;53.252;5.788;2023-03-01T12:56:04;10.80;99.90
54124;DHT22;55741;53.252;5.788;2023-03-01T12:59:09;10.80;99.90
54124;DHT22;55741;53.252;5.788;2023-03-01T13:07:39;11.00;99.90
54124;DHT22;55741;53.252;5.788;2023-03-01T13:31:06;10.70;99.90
54124;DHT22;55741;53.252;5.788;2023-03-01T13:36:00;10.70;99.90
54124;DHT22;55741;53.252;5.788;2023-03-01T13:38:48;10.70;99.90
54124;DHT22;55741;53.252;5.788;2023-03-01T13:44:33;10.60;99.90
54124;DHT22;55741;53.252;5.788;2023-03-01T13:47:16;10.50;99.90
54124;DHT22;55741;53.252;5.788;2023-03-01T13:58:05;10.10;99.90
54124;DHT22;55741;53.252;5.788;2023-03-01T14:01:00;10.00;99.90
54124;DHT22;55741;53.252;5.788;2023-03-01T14:03:27;9.90;99.90
54124;DHT22;55741;53.252;5.788;2023-03-01T14:06:06;9.80;99.90
54124;DHT22;55741;53.252;5.788;2023-03-01T14:08:34;9.70;99.90
54124;DHT22;55741;53.252;5.788;2023-03-01T14:14:08;9.50;99.90
54124;DHT22;55741;53.252;5.788;2023-03-01T14:19:27;9.40;99.90
54124;DHT22;55741;53.252;5.788;2023-03-01T14:24:48;9.40;99.90
54124;DHT22;55741;53.252;5.788;2023-03-01T14:27:15;9.30;99.90
54124;DHT22;55741;53.252;5.788;2023-03-01T14:29:41;9.30;99.90
54124;DHT22;55741;53.252;5.788;2023-03-01T14:32:20;9.20;99.90
54124;DHT22;55741;53.252;5.788;2023-03-01T14:34:49;9.10;99.90
54124;DHT22;55741;53.252;5.788;2023-03-01T14:37:20;9.10;99.90
54124;DHT22;55741;53.252;5.788;2023-03-01T14:39:46;9.00;99.90
54124;DHT22;55741;53.252;5.788;2023-03-01T14:42:13;8.90;99.90
54124;DHT22;55741;53.252;5.788;2023-03-01T14:44:52;8.80;99.90
54124;DHT22;55741;53.252;5.788;2023-03-01T14:47:27;8.80;99.90
54124;DHT22;55741;53.252;5.788;2023-03-01T14:50:17;8.80;99.90
54124;DHT22;55741;53.252;5.788;2023-03-01T14:52:45;8.80;99.90
54124;DHT22;55741;53.252;5.788;2023-03-01T14:55:20;8.70;99.90
54124;DHT22;55741;53.252;5.788;2023-03-01T14:57:51;8.70;99.90
54124;DHT22;55741;53.252;5.788;2023-03-01T15:00:24;8.70;99.90
54124;DHT22;55741;53.252;5.788;2023-03-01T15:02:52;8.60;99.90
54124;DHT22;55741;53.252;5.788;2023-03-01T15:05:32;8.60;99.90
54124;DHT22;55741;53.252;5.788;2023-03-01T15:08:00;8.50;99.90
54124;DHT22;55741;53.252;5.788;2023-03-01T15:10:29;8.40;99.90
54124;DHT22;55741;53.252;5.788;2023-03-01T15:12:55;8.40;99.90
54124;DHT22;55741;53.252;5.788;2023-03-01T15:17:56;8.30;99.90
54124;DHT22;55741;53.252;5.788;2023-03-01T15:20:24;8.30;99.90
54124;DHT22;55741;53.252;5.788;2023-03-01T15:22:55;8.20;99.90
54124;DHT22;55741;53.252;5.788;2023-03-01T15:25:29;8.20;99.90
54124;DHT22;55741;53.252;5.788;2023-03-01T15:27:56;8.20;99.90
54124;DHT22;55741;53.252;5.788;2023-03-01T15:35:49;8.00;99.90
54124;DHT22;55741;53.252;5.788;2023-03-01T15:38:36;7.90;99.90
54124;DHT22;55741;53.252;5.788;2023-03-01T15:41:30;7.80;99.90
54124;DHT22;55741;53.252;5.788;2023-03-01T15:44:14;7.80;99.90
54124;DHT22;55741;53.252;5.788;2023-03-01T15:46:46;7.70;99.90
54124;DHT22;55741;53.252;5.788;2023-03-01T15:49:42;7.50;99.90
54124;DHT22;55741;53.252;5.788;2023-03-01T15:52:35;7.40;99.90
54124;DHT22;55741;53.252;5.788;2023-03-01T15:55:14;7.30;99.90
54124;DHT22;55741;53.252;5.788;2023-03-01T15:57:40;7.10;99.90
54124;DHT22;55741;53.252;5.788;2023-03-01T16:00:10;7.00;99.90
54124;DHT22;55741;53.252;5.788;2023-03-01T16:02:43;6.90;99.90
54124;DHT22;55741;53.252;5.788;2023-03-01T16:05:21;6.90;99.90
54124;DHT22;55741;53.252;5.788;2023-03-01T16:07:49;6.90;99.90
54124;DHT22;55741;53.252;5.788;2023-03-01T16:10:15;6.80;99.90
54124;DHT22;55741;53.252;5.788;2023-03-01T16:12:50;6.70;99.90
54124;DHT22;55741;53.252;5.788;2023-03-01T16:17:50;6.50;99.90
54124;DHT22;55741;53.252;5.788;2023-03-01T16:20:16;6.50;99.90
54124;DHT22;55741;53.252;5.788;2023-03-01T16:22:43;6.40;99.90
54124;DHT22;55741;53.252;5.788;2023-03-01T16:25:14;6.40;99.90
54124;DHT22;55741;53.252;5.788;2023-03-01T16:27:43;6.30;99.90
54124;DHT22;55741;53.252;5.788;2023-03-01T16:30:10;6.20;99.90
54124;DHT22;55741;53.252;5.788;2023-03-01T16:32:40;6.20;99.90
54124;DHT22;55741;53.252;5.788;2023-03-01T16:35:07;6.20;99.90
54124;DHT22;55741;53.252;5.788;2023-03-01T16:37:35;6.10;99.90
54124;DHT22;55741;53.252;5.788;2023-03-01T16:40:06;6.10;99.90
54124;DHT22;55741;53.252;5.788;2023-03-01T16:42:34;6.00;99.90
54124;DHT22;55741;53.252;5.788;2023-03-01T16:45:00;6.00;99.90
54124;DHT22;55741;53.252;5.788;2023-03-01T16:47:29;6.00;99.90
54124;DHT22;55741;53.252;5.788;2023-03-01T16:49:55;5.90;99.90
54124;DHT22;55741;53.252;5.788;2023-03-01T16:52:22;5.80;99.90
54124;DHT22;55741;53.252;5.788;2023-03-01T16:54:48;5.80;99.90
54124;DHT22;55741;53.252;5.788;2023-03-01T16:57:16;5.70;99.90
54124;DHT22;55741;53.252;5.788;2023-03-01T16:59:42;5.70;99.90
54124;DHT22;55741;53.252;5.788;2023-03-01T17:02:12;5.60;99.90
54124;DHT22;55741;53.252;5.788;2023-03-01T17:04:39;5.60;99.90
54124;DHT22;55741;53.252;5.788;2023-03-01T17:07:05;5.50;99.90
54124;DHT22;55741;53.252;5.788;2023-03-01T17:09:35;5.40;99.90
54124;DHT22;55741;53.252;5.788;2023-03-01T17:12:01;5.30;99.90
54124;DHT22;55741;53.252;5.788;2023-03-01T17:14:27;5.20;99.90
54124;DHT22;55741;53.252;5.788;2023-03-01T17:16:55;5.10;99.90
54124;DHT22;55741;53.252;5.788;2023-03-01T17:19:21;5.10;99.90
54124;DHT22;55741;53.252;5.788;2023-03-01T17:21:47;5.00;99.90
54124;DHT22;55741;53.252;5.788;2023-03-01T17:24:13;4.90;99.90
54124;DHT22;55741;53.252;5.788;2023-03-01T17:26:39;4.90;99.90
54124;DHT22;55741;53.252;5.788;2023-03-01T17:29:05;4.80;99.90
54124;DHT22;55741;53.252;5.788;2023-03-01T17:31:32;4.70;99.90
54124;DHT22;55741;53.252;5.788;2023-03-01T17:33:58;4.60;99.90
54124;DHT22;55741;53.252;5.788;2023-03-01T17:36:28;4.60;99.90
54124;DHT22;55741;53.252;5.788;2023-03-01T17:38:53;4.60;99.90
54124;DHT22;55741;53.252;5.788;2023-03-01T17:41:23;4.50;99.90
54124;DHT22;55741;53.252;5.788;2023-03-01T17:43:50;4.40;99.90
54124;DHT22;55741;53.252;5.788;2023-03-01T17:46:15;4.30;99.90
54124;DHT22;55741;53.252;5.788;2023-03-01T17:48:43;4.30;99.90
54124;DHT22;55741;53.252;5.788;2023-03-01T17:51:10;4.30;99.90
54124;DHT22;55741;53.252;5.788;2023-03-01T17:53:40;4.30;99.90
54124;DHT22;55741;53.252;5.788;2023-03-01T17:56:06;4.20;99.90
54124;DHT22;55741;53.252;5.788;2023-03-01T17:58:33;4.20;99.90
54124;DHT22;55741;53.252;5.788;2023-03-01T18:01:09;4.20;99.90
54124;DHT22;55741;53.252;5.788;2023-03-01T18:03:35;4.20;99.90
54124;DHT22;55741;53.252;5.788;2023-03-01T18:06:01;4.20;99.90
54124;DHT22;55741;53.252;5.788;2023-03-01T18:08:28;4.10;99.90